Time;durP1;ratioP1;P1;durP2;ratioP2;P2;SDS_P1;SDS_P2;PMS_P1;PMS_P2;Temp;Humidity;BMP_temperature;BMP_pressure;BME280_temperature;BME280_humidity;BME280_pressure;Samples;Min_cycle;Max_cycle;Signal;HPM_P1;HPM_P2
2023/01/03 00:00:00;;;;;;;32.08;19.13;;;;;;;;;;5015942;28;20662;-54
2023/01/03 00:02:28;;;;;;;39.78;21.50;;;;;;;;;;5016161;28;20236;-52
2023/01/03 00:04:55;;;;;;;37.90;20.42;;;;;;;;;;5015833;28;20304;-55
2023/01/03 00:07:35;;;;;;;27.60;17.42;;;;;;;;;;5016002;28;20204;-56
2023/01/03 00:10:07;;;;;;;32.83;18.67;;;;;;;;;;5015966;28;20225;-54
2023/01/03 00:12:36;;;;;;;38.13;19.30;;;;;;;;;;5014865;28;20520;-56
2023/01/03 00:15:03;;;;;;;42.63;19.67;;;;;;;;;;5015598;28;20529;-51
2023/01/03 00:17:31;;;;;;;32.08;17.40;;;;;;;;;;5015561;28;20522;-56
2023/01/03 00:19:58;;;;;;;36.63;18.75;;;;;;;;;;5015796;28;20281;-54
2023/01/03 00:22:25;;;;;;;71.82;29.67;;;;;;;;;;5015482;28;20651;-58
2023/01/03 00:24:52;;;;;;;41.05;20.65;;;;;;;;;;5015603;28;20206;-57
2023/01/03 00:27:20;;;;;;;38.47;19.35;;;;;;;;;;5015530;28;20217;-57
2023/01/03 00:29:47;;;;;;;33.85;18.73;;;;;;;;;;5014477;28;20205;-55
2023/01/03 00:32:14;;;;;;;38.58;18.70;;;;;;;;;;5015523;28;20221;-53
2023/01/03 00:34:43;;;;;;;33.05;18.17;;;;;;;;;;5015178;28;20201;-54
2023/01/03 00:37:12;;;;;;;34.67;18.70;;;;;;;;;;5015196;28;20205;-56
2023/01/03 00:39:39;;;;;;;34.92;19.52;;;;;;;;;;5015286;28;20733;-60
2023/01/03 00:42:07;;;;;;;132.73;63.95;;;;;;;;;;5015048;28;20596;-53
2023/01/03 00:44:34;;;;;;;62.50;41.30;;;;;;;;;;5015053;28;20527;-56
2023/01/03 00:47:02;;;;;;;38.88;22.45;;;;;;;;;;5015269;28;20213;-58
2023/01/03 00:49:28;;;;;;;31.13;18.70;;;;;;;;;;5015227;28;20220;-55
2023/01/03 00:51:57;;;;;;;30.20;17.85;;;;;;;;;;5015079;28;20240;-52
2023/01/03 00:54:24;;;;;;;38.38;20.17;;;;;;;;;;5015056;28;20219;-54
2023/01/03 00:56:51;;;;;;;33.00;17.98;;;;;;;;;;5014975;28;20305;-55
2023/01/03 00:59:20;;;;;;;32.30;19.13;;;;;;;;;;5015048;28;20229;-51
2023/01/03 01:01:50;;;;;;;35.38;18.40;;;;;;;;;;5014763;28;20205;-55
2023/01/03 01:04:23;;;;;;;46.42;21.77;;;;;;;;;;5014763;28;20201;-54
2023/01/03 01:06:53;;;;;;;44.88;22.05;;;;;;;;;;5014753;28;20189;-55
2023/01/03 01:09:22;;;;;;;34.80;19.42;;;;;;;;;;5014661;28;20244;-54
2023/01/03 01:11:50;;;;;;;46.10;19.88;;;;;;;;;;5014867;28;20611;-57
2023/01/03 01:14:20;;;;;;;35.13;18.80;;;;;;;;;;5014628;28;20214;-51
2023/01/03 01:16:53;;;;;;;36.05;19.75;;;;;;;;;;5014811;28;20240;-54
2023/01/03 01:19:27;;;;;;;40.17;20.15;;;;;;;;;;5014802;28;20205;-57
2023/01/03 01:21:55;;;;;;;38.20;19.17;;;;;;;;;;5014567;28;20656;-55
2023/01/03 01:24:22;;;;;;;48.63;25.50;;;;;;;;;;5014758;28;20363;-53
2023/01/03 01:26:50;;;;;;;38.92;20.40;;;;;;;;;;5014609;28;20209;-54
2023/01/03 01:29:18;;;;;;;31.75;17.90;;;;;;;;;;5014578;28;20205;-57
2023/01/03 01:31:46;;;;;;;39.85;20.23;;;;;;;;;;5014434;28;20229;-55
2023/01/03 01:34:13;;;;;;;32.83;17.92;;;;;;;;;;5013732;28;20201;-53
2023/01/03 01:36:42;;;;;;;41.08;19.55;;;;;;;;;;5014283;28;20765;-56
2023/01/03 01:39:17;;;;;;;33.40;18.70;;;;;;;;;;5014497;28;20557;-58
2023/01/03 01:44:43;;;;;;;93.45;40.67;;;;;;;;;;5014343;28;20209;-55
2023/01/03 01:47:13;;;;;;;37.78;20.38;;;;;;;;;;5014172;28;20665;-59
2023/01/03 01:49:41;;;;;;;45.60;21.17;;;;;;;;;;5014116;28;20529;-57
2023/01/03 01:52:09;;;;;;;35.33;18.33;;;;;;;;;;5014217;28;20221;-57
2023/01/03 01:54:36;;;;;;;35.25;17.20;;;;;;;;;;5014093;28;20216;-59
2023/01/03 01:57:04;;;;;;;34.85;18.38;;;;;;;;;;5013282;28;20205;-54
2023/01/03 01:59:31;;;;;;;36.88;16.92;;;;;;;;;;5014502;28;20216;-54
2023/01/03 02:01:59;;;;;;;29.83;17.05;;;;;;;;;;5014255;28;20213;-57
2023/01/03 02:04:30;;;;;;;170.27;64.25;;;;;;;;;;5014176;28;20202;-55
2023/01/03 02:06:58;;;;;;;98.45;46.97;;;;;;;;;;5014447;28;20212;-53
2023/01/03 02:09:25;;;;;;;96.32;44.15;;;;;;;;;;5014100;28;20209;-58
2023/01/03 02:15:17;;;;;;;27.25;17.13;;;;;;;;;;5017466;28;20251;-57
2023/01/03 02:18:09;;;;;;;30.67;17.00;;;;;;;;;;5017129;28;20205;-57
2023/01/03 02:21:03;;;;;;;36.80;17.52;;;;;;;;;;5018098;28;20228;-58
2023/01/03 02:23:39;;;;;;;27.25;15.70;;;;;;;;;;5017939;28;20205;-59
2023/01/03 02:26:30;;;;;;;31.55;16.40;;;;;;;;;;5017858;28;20243;-55
2023/01/03 02:29:10;;;;;;;39.53;22.15;;;;;;;;;;5016804;28;20612;-54
2023/01/03 02:31:52;;;;;;;28.27;17.20;;;;;;;;;;5016872;28;20616;-55
2023/01/03 02:34:37;;;;;;;27.40;15.65;;;;;;;;;;5016803;28;20566;-58
2023/01/03 02:37:38;;;;;;;24.95;15.48;;;;;;;;;;5022289;28;20196;-57
2023/01/03 02:40:13;;;;;;;30.42;16.38;;;;;;;;;;5037586;28;20192;-55
2023/01/03 02:43:09;;;;;;;35.85;17.70;;;;;;;;;;5036378;28;20235;-55
2023/01/03 02:45:51;;;;;;;33.60;17.55;;;;;;;;;;5035731;28;20282;-54
2023/01/03 02:48:32;;;;;;;89.93;37.58;;;;;;;;;;5037331;28;20200;-53
2023/01/03 02:51:02;;;;;;;41.47;19.48;;;;;;;;;;5037149;28;20232;-59
2023/01/03 02:53:32;;;;;;;31.98;16.90;;;;;;;;;;5036110;28;20215;-58
2023/01/03 02:56:05;;;;;;;28.95;15.15;;;;;;;;;;5036353;28;20193;-54
2023/01/03 02:58:35;;;;;;;29.30;16.42;;;;;;;;;;5036101;28;20579;-54
2023/01/03 03:01:03;;;;;;;31.63;16.48;;;;;;;;;;5036421;28;20204;-52
2023/01/03 03:03:36;;;;;;;33.22;16.65;;;;;;;;;;5036053;28;20204;-58
2023/01/03 03:06:07;;;;;;;31.98;15.32;;;;;;;;;;5036831;28;20530;-57
2023/01/03 03:08:34;;;;;;;61.40;32.40;;;;;;;;;;5036921;28;20210;-57
2023/01/03 03:13:58;;;;;;;27.17;15.35;;;;;;;;;;5036933;28;20209;-53
2023/01/03 03:16:46;;;;;;;34.05;15.75;;;;;;;;;;5036694;28;20277;-55
2023/01/03 03:25:29;;;;;;;33.08;16.48;;;;;;;;;;5036905;28;20529;-51
2023/01/03 03:30:50;;;;;;;33.42;17.90;;;;;;;;;;5035869;28;20196;-55
2023/01/03 03:33:19;;;;;;;29.17;17.30;;;;;;;;;;5035427;28;20332;-55
2023/01/03 03:35:54;;;;;;;28.60;16.08;;;;;;;;;;5035582;28;20278;-56
2023/01/03 03:38:30;;;;;;;28.92;15.30;;;;;;;;;;5035503;28;20269;-56
2023/01/03 03:47:31;;;;;;;30.98;15.65;;;;;;;;;;5035426;28;20218;-58
2023/01/03 03:50:07;;;;;;;58.17;23.73;;;;;;;;;;5035144;28;20200;-55
2023/01/03 03:52:35;;;;;;;27.15;16.13;;;;;;;;;;5035241;28;20228;-57
2023/01/03 03:55:18;;;;;;;30.27;15.43;;;;;;;;;;5035131;28;20533;-55
2023/01/03 03:57:53;;;;;;;26.77;14.40;;;;;;;;;;5035107;28;20208;-59
2023/01/03 04:00:25;;;;;;;36.50;17.02;;;;;;;;;;5034842;28;20200;-58
2023/01/03 04:02:53;;;;;;;36.42;15.20;;;;;;;;;;5034847;28;20204;-55
2023/01/03 04:05:22;;;;;;;32.40;15.02;;;;;;;;;;5035076;28;20223;-56
2023/01/03 04:07:49;;;;;;;76.18;31.08;;;;;;;;;;5034762;28;20204;-58
2023/01/03 04:10:19;;;;;;;35.90;17.70;;;;;;;;;;5034676;28;20641;-56
2023/01/03 04:12:46;;;;;;;26.35;14.75;;;;;;;;;;5034480;28;20744;-54
2023/01/03 04:15:14;;;;;;;23.67;13.93;;;;;;;;;;5035686;28;20505;-55
2023/01/03 04:17:41;;;;;;;29.02;15.77;;;;;;;;;;5035689;28;20201;-56
2023/01/03 04:20:10;;;;;;;31.75;14.93;;;;;;;;;;5035354;28;20243;-56
2023/01/03 04:22:37;;;;;;;26.48;14.38;;;;;;;;;;5035341;28;20649;-56
2023/01/03 04:25:04;;;;;;;30.27;14.63;;;;;;;;;;5035603;28;20200;-56
2023/01/03 04:27:32;;;;;;;46.83;20.27;;;;;;;;;;5035215;28;20263;-53
2023/01/03 04:29:59;;;;;;;31.98;15.80;;;;;;;;;;5035457;28;20213;-59
2023/01/03 04:32:26;;;;;;;26.77;13.82;;;;;;;;;;5035061;28;20298;-56
2023/01/03 04:34:53;;;;;;;33.38;15.45;;;;;;;;;;5035353;28;20201;-56
2023/01/03 04:37:20;;;;;;;31.05;13.63;;;;;;;;;;5034983;28;20579;-54
2023/01/03 04:39:48;;;;;;;26.48;13.27;;;;;;;;;;5035267;28;20220;-55
2023/01/03 04:45:00;;;;;;;23.02;12.25;;;;;;;;;;5035107;28;20242;-58
2023/01/03 04:47:27;;;;;;;51.03;18.65;;;;;;;;;;5034806;28;20535;-56
2023/01/03 04:49:55;;;;;;;37.33;16.40;;;;;;;;;;5034697;28;20212;-58
2023/01/03 04:52:22;;;;;;;33.60;15.27;;;;;;;;;;5035105;28;20221;-58
2023/01/03 04:54:49;;;;;;;109.47;47.72;;;;;;;;;;5034990;28;20209;-58
2023/01/03 04:57:16;;;;;;;48.25;23.77;;;;;;;;;;5034903;28;20201;-55
2023/01/03 04:59:43;;;;;;;30.25;16.95;;;;;;;;;;5034948;28;20196;-55
2023/01/03 05:02:10;;;;;;;30.30;16.85;;;;;;;;;;5028419;28;20240;-58
2023/01/03 05:04:38;;;;;;;26.27;14.13;;;;;;;;;;5033935;28;20225;-57
2023/01/03 05:07:06;;;;;;;24.52;13.20;;;;;;;;;;5033432;28;20693;-56
2023/01/03 05:09:34;;;;;;;22.77;12.95;;;;;;;;;;5033922;28;20236;-52
2023/01/03 05:12:01;;;;;;;24.65;13.48;;;;;;;;;;5033333;28;20280;-55
2023/01/03 05:14:28;;;;;;;26.90;13.57;;;;;;;;;;5033986;28;20236;-58
2023/01/03 05:16:55;;;;;;;48.28;23.98;;;;;;;;;;5033276;28;20594;-55
2023/01/03 05:19:22;;;;;;;29.55;15.63;;;;;;;;;;5033691;28;20221;-53
2023/01/03 05:25:48;;;;;;;34.88;15.50;;;;;;;;;;5033732;28;20221;-59
2023/01/03 05:27:22;;;;;;;26.85;13.85;;;;;;;;;;5033285;28;20225;-51
2023/01/03 05:29:51;;;;;;;25.83;13.40;;;;;;;;;;5032589;28;20240;-58
2023/01/03 05:32:19;;;;;;;27.35;14.10;;;;;;;;;;5032747;28;20320;-57
2023/01/03 05:34:46;;;;;;;28.33;13.55;;;;;;;;;;5033847;28;20235;-58
2023/01/03 05:37:13;;;;;;;200.30;108.55;;;;;;;;;;5032960;28;20228;-57
2023/01/03 05:39:41;;;;;;;47.30;26.83;;;;;;;;;;5033376;28;20229;-56
2023/01/03 05:42:08;;;;;;;31.85;18.23;;;;;;;;;;5033206;28;20256;-55
2023/01/03 05:44:35;;;;;;;24.52;14.85;;;;;;;;;;5032307;28;20228;-60
2023/01/03 05:47:04;;;;;;;28.58;14.95;;;;;;;;;;5032505;28;20229;-57
2023/01/03 05:49:33;;;;;;;29.42;15.80;;;;;;;;;;5033209;28;20294;-54
2023/01/03 05:52:00;;;;;;;20.90;12.52;;;;;;;;;;5032672;28;20244;-52
2023/01/03 05:54:27;;;;;;;25.90;13.75;;;;;;;;;;5032959;28;20229;-58
2023/01/03 05:56:54;;;;;;;27.73;13.75;;;;;;;;;;5041336;28;20277;-60
2023/01/03 05:59:21;;;;;;;39.60;20.60;;;;;;;;;;5052396;28;20289;-54
2023/01/03 06:01:49;;;;;;;33.20;14.60;;;;;;;;;;5053175;28;20224;-56
2023/01/03 06:04:17;;;;;;;21.58;13.10;;;;;;;;;;5053704;28;20539;-52
2023/01/03 06:06:44;;;;;;;25.02;13.77;;;;;;;;;;5053723;28;20207;-56
2023/01/03 06:09:11;;;;;;;27.85;13.60;;;;;;;;;;5053375;28;20628;-57
2023/01/03 06:11:39;;;;;;;28.65;14.25;;;;;;;;;;5053147;28;20648;-53
2023/01/03 06:14:07;;;;;;;30.10;13.88;;;;;;;;;;5053569;28;20204;-56
2023/01/03 06:19:22;;;;;;;102.35;57.75;;;;;;;;;;5053403;28;20216;-56
2023/01/03 06:21:48;;;;;;;34.75;18.88;;;;;;;;;;5053254;28;20261;-58
2023/01/03 06:24:16;;;;;;;25.42;14.27;;;;;;;;;;5053200;28;20218;-59
2023/01/03 06:26:43;;;;;;;26.40;15.20;;;;;;;;;;5053420;28;20223;-57
2023/01/03 06:29:10;;;;;;;23.42;13.13;;;;;;;;;;5053505;28;20230;-59
2023/01/03 06:31:37;;;;;;;29.52;14.50;;;;;;;;;;5053376;28;20240;-58
2023/01/03 06:34:05;;;;;;;27.70;15.65;;;;;;;;;;5052922;28;20208;-57
2023/01/03 06:36:33;;;;;;;25.30;14.07;;;;;;;;;;5052393;28;20200;-59
2023/01/03 06:39:01;;;;;;;30.90;15.02;;;;;;;;;;5053427;28;20238;-60
2023/01/03 06:41:28;;;;;;;41.90;23.80;;;;;;;;;;5053109;28;20231;-57
2023/01/03 06:43:55;;;;;;;27.23;14.85;;;;;;;;;;5052840;28;20208;-58
2023/01/03 06:54:49;;;;;;;26.10;14.38;;;;;;;;;;5013166;28;20201;-61
2023/01/03 06:57:16;;;;;;;27.70;12.98;;;;;;;;;;5014991;28;20202;-57
2023/01/03 06:59:54;;;;;;;29.60;14.63;;;;;;;;;;5017018;28;20209;-57
2023/01/03 07:02:21;;;;;;;49.55;26.95;;;;;;;;;;5016812;28;20272;-60
2023/01/03 07:04:48;;;;;;;27.95;15.00;;;;;;;;;;5016022;28;20213;-56
2023/01/03 07:07:15;;;;;;;23.23;12.70;;;;;;;;;;5016153;28;20216;-58
2023/01/03 07:09:43;;;;;;;19.65;11.10;;;;;;;;;;5016917;28;20590;-57
2023/01/03 07:14:55;;;;;;;25.33;13.52;;;;;;;;;;5015511;28;20209;-59
2023/01/03 07:17:22;;;;;;;25.17;13.75;;;;;;;;;;5016734;28;20260;-59
2023/01/03 07:19:49;;;;;;;30.33;16.98;;;;;;;;;;5016103;28;20252;-55
2023/01/03 07:22:16;;;;;;;29.92;16.40;;;;;;;;;;5016748;28;20201;-56
2023/01/03 07:24:44;;;;;;;32.83;16.10;;;;;;;;;;5016555;28;20213;-56
2023/01/03 07:27:11;;;;;;;33.80;19.27;;;;;;;;;;5016472;28;20224;-60
2023/01/03 07:29:39;;;;;;;32.58;18.15;;;;;;;;;;5016756;28;20205;-59
2023/01/03 07:32:06;;;;;;;29.65;15.60;;;;;;;;;;5015638;28;20204;-59
2023/01/03 07:34:33;;;;;;;28.83;16.58;;;;;;;;;;5016494;28;20268;-56
2023/01/03 07:37:00;;;;;;;29.70;15.10;;;;;;;;;;5016330;28;20212;-57
2023/01/03 07:39:27;;;;;;;23.13;11.88;;;;;;;;;;5016623;28;20197;-57
2023/01/03 07:44:40;;;;;;;33.95;14.90;;;;;;;;;;5016430;28;20236;-58
2023/01/03 07:47:07;;;;;;;19.80;10.60;;;;;;;;;;5015331;28;20226;-59
2023/01/03 07:49:35;;;;;;;19.30;11.05;;;;;;;;;;5015722;28;20216;-57
2023/01/03 07:52:02;;;;;;;19.05;10.02;;;;;;;;;;5015938;28;20197;-57
2023/01/03 07:54:29;;;;;;;23.23;11.00;;;;;;;;;;5016096;28;20198;-58
2023/01/03 07:56:56;;;;;;;16.17;9.32;;;;;;;;;;5016348;28;20208;-58
2023/01/03 07:59:24;;;;;;;25.75;10.90;;;;;;;;;;5015723;28;20216;-56
2023/01/03 08:01:51;;;;;;;14.80;9.93;;;;;;;;;;5015428;28;20217;-58
2023/01/03 08:04:18;;;;;;;33.25;16.02;;;;;;;;;;5015913;28;20198;-55
2023/01/03 08:06:45;;;;;;;22.23;11.63;;;;;;;;;;5015182;28;20288;-59
2023/01/03 08:14:45;;;;;;;19.98;11.13;;;;;;;;;;5015527;28;20592;-57
2023/01/03 08:17:12;;;;;;;17.10;9.43;;;;;;;;;;5015110;28;20216;-60
2023/01/03 08:19:39;;;;;;;17.27;10.18;;;;;;;;;;5014796;28;20226;-61
2023/01/03 08:22:11;;;;;;;17.23;10.15;;;;;;;;;;5014524;28;20538;-60
2023/01/03 08:24:39;;;;;;;101.22;44.03;;;;;;;;;;5014820;28;20638;-60
2023/01/03 08:27:06;;;;;;;45.17;25.02;;;;;;;;;;5015465;28;20212;-59
2023/01/03 08:29:33;;;;;;;24.30;13.05;;;;;;;;;;5015064;28;20220;-57
2023/01/03 08:32:01;;;;;;;22.73;11.38;;;;;;;;;;5014898;28;20201;-57
2023/01/03 08:34:31;;;;;;;19.63;10.73;;;;;;;;;;5015008;28;20240;-59
2023/01/03 08:37:01;;;;;;;19.10;10.55;;;;;;;;;;5014282;28;20274;-55
2023/01/03 08:39:36;;;;;;;15.93;9.23;;;;;;;;;;5014571;28;20209;-58
2023/01/03 08:42:05;;;;;;;15.82;9.32;;;;;;;;;;5015008;28;20232;-59
2023/01/03 08:44:33;;;;;;;16.02;9.38;;;;;;;;;;5013606;28;20213;-60
2023/01/03 08:47:02;;;;;;;39.33;19.25;;;;;;;;;;5015169;28;20212;-56
2023/01/03 08:49:29;;;;;;;29.10;14.27;;;;;;;;;;5015055;28;20205;-61
2023/01/03 08:51:56;;;;;;;19.90;11.20;;;;;;;;;;5013805;28;20275;-56
2023/01/03 08:54:24;;;;;;;22.65;12.10;;;;;;;;;;5014911;28;20621;-59
2023/01/03 08:56:51;;;;;;;25.08;11.65;;;;;;;;;;5013429;28;20668;-60
2023/01/03 08:59:18;;;;;;;16.60;9.00;;;;;;;;;;5013446;28;20272;-58
2023/01/03 09:01:45;;;;;;;15.82;9.32;;;;;;;;;;5014472;28;20205;-59
2023/01/03 09:04:13;;;;;;;13.65;8.07;;;;;;;;;;5014670;28;20208;-57
2023/01/03 09:06:40;;;;;;;66.07;26.73;;;;;;;;;;5014467;28;20205;-56
2023/01/03 09:09:08;;;;;;;15.18;7.13;;;;;;;;;;5014925;28;20205;-56
2023/01/03 09:11:35;;;;;;;12.10;7.93;;;;;;;;;;5014661;28;20201;-60
2023/01/03 09:14:03;;;;;;;20.33;9.13;;;;;;;;;;5013621;28;20636;-56
2023/01/03 09:16:30;;;;;;;15.98;7.25;;;;;;;;;;5014853;28;20251;-59
2023/01/03 09:18:58;;;;;;;13.68;6.70;;;;;;;;;;5012796;28;20219;-60
2023/01/03 09:21:27;;;;;;;14.93;8.15;;;;;;;;;;5014603;28;20221;-60
2023/01/03 09:23:55;;;;;;;21.52;9.25;;;;;;;;;;5014602;28;20213;-56
2023/01/03 09:26:22;;;;;;;41.13;19.15;;;;;;;;;;5014360;28;20246;-59
2023/01/03 09:28:49;;;;;;;21.35;10.80;;;;;;;;;;5014593;28;20205;-57
2023/01/03 09:31:16;;;;;;;16.05;8.23;;;;;;;;;;5014421;28;20248;-59
2023/01/03 09:33:44;;;;;;;21.05;8.85;;;;;;;;;;5014083;28;20237;-58
2023/01/03 09:36:11;;;;;;;22.40;7.45;;;;;;;;;;5014266;28;20240;-60
2023/01/03 09:38:38;;;;;;;16.90;7.13;;;;;;;;;;5013821;28;20201;-59
2023/01/03 09:41:10;;;;;;;15.73;6.15;;;;;;;;;;5014135;28;20198;-56
2023/01/03 09:43:43;;;;;;;11.77;6.00;;;;;;;;;;5013005;28;20638;-56
2023/01/03 09:46:21;;;;;;;67.90;26.48;;;;;;;;;;5014172;28;20209;-60
2023/01/03 09:48:49;;;;;;;18.48;7.30;;;;;;;;;;5013507;28;20212;-59
2023/01/03 10:05:28;;;;;;;13.10;5.07;;;;;;;;;;5014465;28;20283;-59
2023/01/03 10:08:13;;;;;;;15.27;5.60;;;;;;;;;;5013665;28;20213;-58
2023/01/03 10:11:06;;;;;;;6.35;3.35;;;;;;;;;;5013992;28;20212;-60
2023/01/03 10:13:55;;;;;;;8.90;4.28;;;;;;;;;;5010051;28;20229;-57
2023/01/03 10:16:34;;;;;;;9.85;4.15;;;;;;;;;;5012707;28;20205;-55
2023/01/03 10:19:17;;;;;;;15.15;6.93;;;;;;;;;;5013124;28;20223;-56
2023/01/03 10:21:57;;;;;;;8.93;4.18;;;;;;;;;;5012794;28;20209;-53
2023/01/03 10:24:28;;;;;;;7.57;4.60;;;;;;;;;;5012983;28;20216;-57
2023/01/03 10:27:23;;;;;;;17.73;6.32;;;;;;;;;;5013117;28;20216;-59
2023/01/03 10:29:54;;;;;;;7.90;3.15;;;;;;;;;;5013271;28;20271;-59
2023/01/03 10:33:03;;;;;;;16.75;6.40;;;;;;;;;;5016826;28;20212;-55
2023/01/03 10:35:33;;;;;;;14.35;6.15;;;;;;;;;;4956992;29;20209;-59
2023/01/03 10:38:01;;;;;;;6.70;3.65;;;;;;;;;;4957169;29;20211;-62
2023/01/03 10:40:49;;;;;;;7.22;3.28;;;;;;;;;;4988670;28;20652;-55
2023/01/03 10:43:27;;;;;;;6.13;3.75;;;;;;;;;;5016707;28;20217;-59
2023/01/03 10:45:56;;;;;;;7.18;3.45;;;;;;;;;;5017501;28;20543;-56
2023/01/03 10:48:25;;;;;;;12.65;5.22;;;;;;;;;;5017404;28;20202;-57
2023/01/03 10:50:52;;;;;;;3.03;2.15;;;;;;;;;;5016071;28;20206;-55
2023/01/03 10:53:21;;;;;;;21.85;8.13;;;;;;;;;;5015653;28;20229;-59
2023/01/03 10:55:52;;;;;;;15.80;5.68;;;;;;;;;;5015640;28;20196;-55
2023/01/03 10:58:25;;;;;;;8.68;3.70;;;;;;;;;;5017053;28;20635;-60
2023/01/03 11:01:18;;;;;;;7.43;4.03;;;;;;;;;;5017104;28;20622;-56
2023/01/03 11:04:06;;;;;;;15.68;8.15;;;;;;;;;;5016429;28;20194;-60
2023/01/03 11:06:33;;;;;;;14.25;8.00;;;;;;;;;;5015609;28;20247;-58
2023/01/03 11:09:03;;;;;;;10.18;6.15;;;;;;;;;;5016595;28;20541;-58
2023/01/03 11:11:34;;;;;;;8.40;5.05;;;;;;;;;;5017043;28;20201;-61
2023/01/03 11:14:08;;;;;;;12.50;5.63;;;;;;;;;;5016457;28;20229;-57
2023/01/03 11:16:35;;;;;;;8.80;5.35;;;;;;;;;;5017005;28;20205;-57
2023/01/03 11:19:04;;;;;;;12.93;5.20;;;;;;;;;;5016496;28;20205;-57
2023/01/03 11:21:31;;;;;;;9.35;4.47;;;;;;;;;;5016618;28;20205;-59
2023/01/03 11:24:17;;;;;;;9.00;4.65;;;;;;;;;;5015635;28;20538;-57
2023/01/03 11:27:22;;;;;;;6.90;4.63;;;;;;;;;;5016143;28;20194;-54
2023/01/03 11:30:01;;;;;;;10.32;5.72;;;;;;;;;;5015279;28;20205;-60
2023/01/03 11:32:40;;;;;;;11.30;5.07;;;;;;;;;;5016818;28;20275;-60
2023/01/03 11:35:25;;;;;;;27.35;10.82;;;;;;;;;;5016192;28;20217;-56
2023/01/03 11:37:52;;;;;;;13.45;7.07;;;;;;;;;;5016349;28;20506;-58
2023/01/03 11:40:29;;;;;;;8.52;5.18;;;;;;;;;;5015804;28;20212;-60
2023/01/03 11:43:31;;;;;;;11.75;5.88;;;;;;;;;;5015371;28;20240;-59
2023/01/03 11:46:33;;;;;;;13.23;5.80;;;;;;;;;;4962819;28;20234;-58
2023/01/03 11:49:19;;;;;;;7.72;5.57;;;;;;;;;;4997249;28;20200;-60
2023/01/03 11:51:57;;;;;;;9.30;5.32;;;;;;;;;;5016398;28;20212;-59
2023/01/03 11:55:07;;;;;;;10.20;5.28;;;;;;;;;;5014932;28;20224;-58
2023/01/03 11:57:45;;;;;;;9.10;5.28;;;;;;;;;;5010470;28;20220;-55
2023/01/03 12:00:43;;;;;;;10.75;5.63;;;;;;;;;;5016310;28;20190;-56
2023/01/03 12:03:23;;;;;;;47.67;18.92;;;;;;;;;;5015870;28;20638;-56
2023/01/03 12:06:10;;;;;;;7.97;4.97;;;;;;;;;;5015706;28;20213;-59
2023/01/03 12:08:53;;;;;;;7.57;4.20;;;;;;;;;;5014910;28;20205;-55
2023/01/03 12:11:48;;;;;;;6.25;3.70;;;;;;;;;;5016091;28;20197;-59
2023/01/03 12:14:15;;;;;;;9.80;3.35;;;;;;;;;;5015372;28;20635;-56
2023/01/03 12:17:08;;;;;;;5.68;3.13;;;;;;;;;;5015888;28;20201;-54
2023/01/03 12:19:45;;;;;;;5.32;3.25;;;;;;;;;;5015820;28;20216;-56
2023/01/03 12:22:17;;;;;;;7.28;3.65;;;;;;;;;;5015638;28;20255;-56
2023/01/03 12:24:51;;;;;;;7.45;3.05;;;;;;;;;;5014368;28;20209;-58
2023/01/03 12:27:27;;;;;;;8.43;4.45;;;;;;;;;;5014370;28;20220;-62
2023/01/03 12:30:18;;;;;;;7.25;2.97;;;;;;;;;;5014032;28;20210;-59
2023/01/03 12:32:49;;;;;;;6.40;3.03;;;;;;;;;;5004631;28;20201;-59
2023/01/03 12:35:22;;;;;;;6.03;2.58;;;;;;;;;;5013098;28;20220;-59
2023/01/03 12:37:50;;;;;;;4.60;2.60;;;;;;;;;;5020595;28;20204;-56
2023/01/03 12:40:33;;;;;;;5.00;2.45;;;;;;;;;;5034963;28;20262;-59
2023/01/03 12:43:10;;;;;;;3.15;2.42;;;;;;;;;;5033986;28;20228;-55
2023/01/03 12:46:19;;;;;;;12.10;5.32;;;;;;;;;;5034260;28;20196;-55
2023/01/03 12:49:12;;;;;;;5.00;2.45;;;;;;;;;;5029326;28;20235;-51
2023/01/03 12:51:40;;;;;;;6.55;2.28;;;;;;;;;;5032946;28;20687;-56
2023/01/03 12:54:17;;;;;;;5.25;2.75;;;;;;;;;;5027854;28;20650;-59
2023/01/03 12:57:03;;;;;;;6.03;2.63;;;;;;;;;;5032523;28;20196;-60
2023/01/03 13:00:31;;;;;;;11.10;3.00;;;;;;;;;;5031895;28;20274;-61
2023/01/03 13:03:38;;;;;;;5.57;2.28;;;;;;;;;;4963646;28;20648;-63
2023/01/03 13:06:13;;;;;;;7.20;3.30;;;;;;;;;;5031604;28;20286;-62
2023/01/03 13:08:56;;;;;;;4.57;2.30;;;;;;;;;;5031906;28;20200;-61
2023/01/03 13:11:43;;;;;;;5.88;3.00;;;;;;;;;;5032565;28;20224;-59
2023/01/03 13:14:25;;;;;;;6.45;2.42;;;;;;;;;;5014392;28;20216;-58
2023/01/03 13:17:18;;;;;;;4.97;2.75;;;;;;;;;;5031370;28;20185;-60
2023/01/03 13:19:52;;;;;;;3.45;2.33;;;;;;;;;;5031104;28;20204;-60
2023/01/03 13:22:42;;;;;;;3.85;2.35;;;;;;;;;;5032208;28;20180;-60
2023/01/03 13:25:28;;;;;;;10.75;3.03;;;;;;;;;;5015145;28;20216;-59
2023/01/03 13:27:57;;;;;;;9.35;3.53;;;;;;;;;;5031739;28;20203;-61
2023/01/03 13:30:30;;;;;;;9.30;2.80;;;;;;;;;;5030888;28;20216;-62
2023/01/03 13:33:23;;;;;;;7.40;3.72;;;;;;;;;;5031787;28;20247;-59
2023/01/03 13:35:57;;;;;;;4.73;2.50;;;;;;;;;;5029799;28;20248;-61
2023/01/03 13:38:29;;;;;;;6.25;2.58;;;;;;;;;;5032691;28;20209;-60
2023/01/03 13:41:03;;;;;;;5.43;2.60;;;;;;;;;;5033658;28;20243;-61
2023/01/03 13:43:49;;;;;;;5.85;2.38;;;;;;;;;;5033392;28;20213;-60
2023/01/03 13:46:30;;;;;;;6.32;2.30;;;;;;;;;;5033977;28;20196;-60
2023/01/03 13:49:04;;;;;;;2.70;2.08;;;;;;;;;;5033793;28;20204;-59
2023/01/03 13:51:55;;;;;;;5.10;2.30;;;;;;;;;;5033579;28;20188;-60
2023/01/03 13:54:33;;;;;;;9.35;4.43;;;;;;;;;;5032135;28;20240;-59
2023/01/03 13:57:04;;;;;;;6.53;2.95;;;;;;;;;;5034036;28;20192;-61
2023/01/03 13:59:35;;;;;;;9.25;3.28;;;;;;;;;;5033689;28;20203;-58
2023/01/03 14:02:06;;;;;;;7.70;3.00;;;;;;;;;;5032861;28;20192;-57
2023/01/03 14:04:38;;;;;;;5.80;3.35;;;;;;;;;;5032769;28;20222;-60
2023/01/03 14:07:22;;;;;;;7.28;3.63;;;;;;;;;;5026041;28;20216;-57
2023/01/03 14:09:58;;;;;;;13.32;6.22;;;;;;;;;;5037194;28;20676;-61
2023/01/03 14:12:44;;;;;;;18.33;7.45;;;;;;;;;;5036801;28;20243;-58
2023/01/03 14:15:21;;;;;;;21.57;8.80;;;;;;;;;;5035986;28;20306;-57
2023/01/03 14:17:57;;;;;;;26.53;8.60;;;;;;;;;;5037076;28;20258;-58
2023/01/03 14:20:33;;;;;;;39.50;12.63;;;;;;;;;;5036361;28;20549;-59
2023/01/03 14:23:05;;;;;;;22.50;5.95;;;;;;;;;;5033620;28;20553;-59
2023/01/03 14:26:05;;;;;;;28.90;8.60;;;;;;;;;;5025419;28;20228;-60
2023/01/03 14:28:35;;;;;;;31.23;9.57;;;;;;;;;;5015374;28;20814;-58
2023/01/03 14:31:06;;;;;;;28.40;10.63;;;;;;;;;;5016242;28;20241;-61
2023/01/03 14:33:58;;;;;;;27.87;10.70;;;;;;;;;;5016073;28;20271;-58
2023/01/03 14:36:26;;;;;;;27.92;12.30;;;;;;;;;;5015059;28;20687;-63
2023/01/03 14:38:55;;;;;;;63.83;27.37;;;;;;;;;;5016952;28;20237;-59
2023/01/03 14:41:34;;;;;;;54.13;23.43;;;;;;;;;;5026085;28;20705;-62
2023/01/03 14:44:15;;;;;;;36.70;14.70;;;;;;;;;;5035334;28;20231;-59
2023/01/03 14:46:55;;;;;;;37.43;13.80;;;;;;;;;;5036744;28;20288;-60
2023/01/03 14:49:37;;;;;;;46.97;15.27;;;;;;;;;;5032954;28;20235;-58
2023/01/03 14:52:17;;;;;;;51.03;13.80;;;;;;;;;;5033772;28;20224;-62
2023/01/03 14:54:47;;;;;;;67.65;18.83;;;;;;;;;;5026509;28;20248;-58
2023/01/03 14:57:20;;;;;;;43.65;13.48;;;;;;;;;;5037163;28;20240;-61
2023/01/03 14:59:49;;;;;;;42.42;13.20;;;;;;;;;;5034450;28;20228;-60
2023/01/03 15:02:17;;;;;;;46.80;13.32;;;;;;;;;;5003111;28;20700;-60
2023/01/03 15:04:54;;;;;;;28.48;9.35;;;;;;;;;;5034948;28;20544;-60
2023/01/03 15:07:27;;;;;;;29.77;9.35;;;;;;;;;;5032345;28;20232;-61
2023/01/03 15:10:05;;;;;;;25.70;11.93;;;;;;;;;;5034892;28;20247;-58
2023/01/03 15:12:36;;;;;;;18.25;8.20;;;;;;;;;;5018746;28;20220;-59
2023/01/03 15:15:24;;;;;;;12.73;5.20;;;;;;;;;;5034627;28;20244;-60
2023/01/03 15:18:01;;;;;;;13.07;4.85;;;;;;;;;;5034904;28;20235;-60
2023/01/03 15:20:37;;;;;;;13.83;6.00;;;;;;;;;;5033315;28;20838;-60
2023/01/03 15:23:06;;;;;;;13.57;5.17;;;;;;;;;;5016663;28;20235;-60
2023/01/03 15:25:38;;;;;;;9.57;4.87;;;;;;;;;;5018414;28;20235;-61
2023/01/03 15:28:50;;;;;;;13.63;5.73;;;;;;;;;;5035362;28;20225;-60
2023/01/03 15:31:28;;;;;;;21.40;8.20;;;;;;;;;;5024059;28;20267;-61
2023/01/03 15:34:08;;;;;;;20.17;6.77;;;;;;;;;;5035472;28;20248;-59
2023/01/03 15:36:36;;;;;;;17.63;7.07;;;;;;;;;;5032829;28;20232;-59
2023/01/03 15:39:23;;;;;;;23.47;8.37;;;;;;;;;;5034420;28;20239;-59
2023/01/03 15:45:17;;;;;;;21.97;7.27;;;;;;;;;;5034598;28;20678;-59
2023/01/03 15:47:47;;;;;;;13.87;6.03;;;;;;;;;;5033893;28;20246;-60
2023/01/03 15:50:17;;;;;;;24.80;11.07;;;;;;;;;;5033351;28;20291;-59
2023/01/03 15:52:46;;;;;;;15.67;7.60;;;;;;;;;;5033298;28;20225;-60
2023/01/03 15:55:15;;;;;;;19.13;8.40;;;;;;;;;;5033539;28;20644;-59
2023/01/03 15:57:49;;;;;;;30.30;11.67;;;;;;;;;;5034327;28;20232;-59
2023/01/03 16:00:20;;;;;;;16.73;6.17;;;;;;;;;;5033043;28;20225;-59
2023/01/03 16:02:48;;;;;;;13.70;6.60;;;;;;;;;;5034620;28;20233;-58
2023/01/03 16:05:17;;;;;;;22.43;8.47;;;;;;;;;;5033790;28;20239;-59
2023/01/03 16:07:51;;;;;;;18.87;8.53;;;;;;;;;;5033448;28;20339;-58